sensor_id;sensor_type;location;lat;lon;timestamp;P1;durP1;ratioP1;P2;durP2;ratioP2
6941;SDS011;3510;43.200;27.920;2023-07-20T04:06:29;10.43;;;6.32;;
6941;SDS011;3510;43.200;27.920;2023-07-20T04:08:56;7.45;;;6.35;;
6941;SDS011;3510;43.200;27.920;2023-07-20T04:11:23;5.93;;;5.40;;
6941;SDS011;3510;43.200;27.920;2023-07-20T04:13:50;6.03;;;5.43;;
6941;SDS011;3510;43.200;27.920;2023-07-20T04:16:16;9.10;;;5.65;;
6941;SDS011;3510;43.200;27.920;2023-07-20T04:18:45;7.25;;;5.53;;
6941;SDS011;3510;43.200;27.920;2023-07-20T04:21:12;9.55;;;5.80;;
6941;SDS011;3510;43.200;27.920;2023-07-20T04:23:40;7.88;;;5.72;;
6941;SDS011;3510;43.200;27.920;2023-07-20T04:26:09;9.52;;;5.45;;
6941;SDS011;3510;43.200;27.920;2023-07-20T04:28:37;11.68;;;5.40;;
6941;SDS011;3510;43.200;27.920;2023-07-20T04:31:12;10.48;;;5.95;;
6941;SDS011;3510;43.200;27.920;2023-07-20T04:33:40;9.95;;;6.05;;
6941;SDS011;3510;43.200;27.920;2023-07-20T04:36:07;11.68;;;5.63;;
6941;SDS011;3510;43.200;27.920;2023-07-20T04:58:16;5.80;;;5.28;;
6941;SDS011;3510;43.200;27.920;2023-07-20T05:00:43;12.88;;;5.97;;
6941;SDS011;3510;43.200;27.920;2023-07-20T05:03:10;7.53;;;5.40;;
6941;SDS011;3510;43.200;27.920;2023-07-20T05:05:37;6.97;;;5.80;;
6941;SDS011;3510;43.200;27.920;2023-07-20T05:08:04;7.22;;;5.70;;
6941;SDS011;3510;43.200;27.920;2023-07-20T05:10:31;6.00;;;5.55;;
6941;SDS011;3510;43.200;27.920;2023-07-20T05:12:58;6.32;;;5.55;;
6941;SDS011;3510;43.200;27.920;2023-07-20T05:15:26;9.98;;;6.03;;
6941;SDS011;3510;43.200;27.920;2023-07-20T05:17:53;17.10;;;6.28;;
6941;SDS011;3510;43.200;27.920;2023-07-20T05:20:20;7.28;;;6.55;;
6941;SDS011;3510;43.200;27.920;2023-07-20T05:22:47;17.05;;;5.28;;
6941;SDS011;3510;43.200;27.920;2023-07-20T05:25:14;11.05;;;5.28;;
6941;SDS011;3510;43.200;27.920;2023-07-20T05:27:43;10.35;;;5.75;;
6941;SDS011;3510;43.200;27.920;2023-07-20T05:30:11;13.23;;;5.70;;
6941;SDS011;3510;43.200;27.920;2023-07-20T05:32:39;9.68;;;5.35;;
6941;SDS011;3510;43.200;27.920;2023-07-20T05:35:07;9.23;;;5.45;;
6941;SDS011;3510;43.200;27.920;2023-07-20T05:37:36;10.05;;;5.40;;
6941;SDS011;3510;43.200;27.920;2023-07-20T05:40:03;11.48;;;5.85;;
6941;SDS011;3510;43.200;27.920;2023-07-20T05:42:31;14.55;;;5.30;;
6941;SDS011;3510;43.200;27.920;2023-07-20T05:44:57;8.95;;;5.22;;
6941;SDS011;3510;43.200;27.920;2023-07-20T05:47:24;10.57;;;6.50;;
6941;SDS011;3510;43.200;27.920;2023-07-20T05:49:52;7.38;;;5.35;;
6941;SDS011;3510;43.200;27.920;2023-07-20T05:52:19;8.05;;;5.35;;
6941;SDS011;3510;43.200;27.920;2023-07-20T05:54:46;11.77;;;6.22;;
6941;SDS011;3510;43.200;27.920;2023-07-20T05:57:25;14.02;;;6.03;;
6941;SDS011;3510;43.200;27.920;2023-07-20T06:00:21;11.35;;;5.90;;
6941;SDS011;3510;43.200;27.920;2023-07-20T06:03:10;8.30;;;5.25;;
6941;SDS011;3510;43.200;27.920;2023-07-20T06:05:45;10.45;;;5.95;;
6941;SDS011;3510;43.200;27.920;2023-07-20T06:08:19;6.90;;;5.15;;
6941;SDS011;3510;43.200;27.920;2023-07-20T06:11:00;13.45;;;5.30;;
6941;SDS011;3510;43.200;27.920;2023-07-20T06:13:36;12.50;;;5.60;;
6941;SDS011;3510;43.200;27.920;2023-07-20T06:16:25;8.32;;;5.40;;
6941;SDS011;3510;43.200;27.920;2023-07-20T06:18:59;9.50;;;5.25;;
6941;SDS011;3510;43.200;27.920;2023-07-20T06:21:44;7.70;;;5.38;;
6941;SDS011;3510;43.200;27.920;2023-07-20T06:24:23;10.93;;;6.07;;
6941;SDS011;3510;43.200;27.920;2023-07-20T06:30:19;11.77;;;5.85;;
6941;SDS011;3510;43.200;27.920;2023-07-20T06:32:54;10.30;;;6.28;;
6941;SDS011;3510;43.200;27.920;2023-07-20T06:35:24;5.32;;;4.82;;
6941;SDS011;3510;43.200;27.920;2023-07-20T06:37:57;12.20;;;5.18;;
6941;SDS011;3510;43.200;27.920;2023-07-20T06:40:25;4.65;;;3.22;;
6941;SDS011;3510;43.200;27.920;2023-07-20T06:42:57;6.03;;;3.35;;
6941;SDS011;3510;43.200;27.920;2023-07-20T06:45:25;6.43;;;3.05;;
6941;SDS011;3510;43.200;27.920;2023-07-20T06:48:11;8.00;;;2.92;;
6941;SDS011;3510;43.200;27.920;2023-07-20T06:50:44;8.75;;;3.92;;
6941;SDS011;3510;43.200;27.920;2023-07-20T06:53:41;7.07;;;3.33;;
6941;SDS011;3510;43.200;27.920;2023-07-20T06:56:08;8.50;;;2.80;;
6941;SDS011;3510;43.200;27.920;2023-07-20T06:58:36;7.95;;;3.25;;
6941;SDS011;3510;43.200;27.920;2023-07-20T07:01:04;6.95;;;3.30;;
6941;SDS011;3510;43.200;27.920;2023-07-20T07:03:33;6.20;;;3.80;;
6941;SDS011;3510;43.200;27.920;2023-07-20T07:06:01;6.43;;;3.50;;
6941;SDS011;3510;43.200;27.920;2023-07-20T07:08:30;6.10;;;3.25;;
6941;SDS011;3510;43.200;27.920;2023-07-20T07:11:01;11.63;;;3.22;;
6941;SDS011;3510;43.200;27.920;2023-07-20T07:13:28;7.95;;;3.10;;
6941;SDS011;3510;43.200;27.920;2023-07-20T07:15:55;9.43;;;3.50;;
6941;SDS011;3510;43.200;27.920;2023-07-20T07:18:24;10.88;;;3.50;;
6941;SDS011;3510;43.200;27.920;2023-07-20T07:20:51;5.40;;;4.53;;
6941;SDS011;3510;43.200;27.920;2023-07-20T07:23:19;7.72;;;3.80;;
6941;SDS011;3510;43.200;27.920;2023-07-20T07:25:46;8.55;;;3.10;;
6941;SDS011;3510;43.200;27.920;2023-07-20T07:28:17;7.78;;;3.25;;
6941;SDS011;3510;43.200;27.920;2023-07-20T07:30:44;6.82;;;3.17;;
6941;SDS011;3510;43.200;27.920;2023-07-20T07:33:23;9.18;;;3.45;;
6941;SDS011;3510;43.200;27.920;2023-07-20T07:35:50;8.07;;;3.30;;
6941;SDS011;3510;43.200;27.920;2023-07-20T07:38:17;6.05;;;3.25;;
6941;SDS011;3510;43.200;27.920;2023-07-20T07:40:44;7.30;;;3.22;;
6941;SDS011;3510;43.200;27.920;2023-07-20T07:43:11;9.45;;;2.80;;
6941;SDS011;3510;43.200;27.920;2023-07-20T07:45:40;5.20;;;3.20;;
6941;SDS011;3510;43.200;27.920;2023-07-20T07:48:08;10.25;;;4.32;;
6941;SDS011;3510;43.200;27.920;2023-07-20T07:50:37;9.32;;;3.90;;
6941;SDS011;3510;43.200;27.920;2023-07-20T07:53:07;6.43;;;3.22;;
6941;SDS011;3510;43.200;27.920;2023-07-20T07:55:35;13.63;;;3.58;;
6941;SDS011;3510;43.200;27.920;2023-07-20T07:58:02;6.07;;;3.80;;
6941;SDS011;3510;43.200;27.920;2023-07-20T08:00:29;11.93;;;4.10;;
6941;SDS011;3510;43.200;27.920;2023-07-20T08:02:57;4.25;;;2.83;;
6941;SDS011;3510;43.200;27.920;2023-07-20T08:05:24;4.68;;;2.70;;
6941;SDS011;3510;43.200;27.920;2023-07-20T08:07:51;5.05;;;2.80;;
6941;SDS011;3510;43.200;27.920;2023-07-20T08:10:18;21.63;;;3.70;;
6941;SDS011;3510;43.200;27.920;2023-07-20T08:12:45;6.25;;;2.55;;
6941;SDS011;3510;43.200;27.920;2023-07-20T08:15:12;6.35;;;2.85;;
6941;SDS011;3510;43.200;27.920;2023-07-20T08:17:40;5.47;;;2.50;;
6941;SDS011;3510;43.200;27.920;2023-07-20T08:20:09;5.60;;;2.92;;
6941;SDS011;3510;43.200;27.920;2023-07-20T08:22:37;4.82;;;2.60;;
6941;SDS011;3510;43.200;27.920;2023-07-20T08:25:04;2.53;;;2.15;;
6941;SDS011;3510;43.200;27.920;2023-07-20T08:27:31;5.72;;;2.70;;
6941;SDS011;3510;43.200;27.920;2023-07-20T08:29:58;4.28;;;2.50;;
6941;SDS011;3510;43.200;27.920;2023-07-20T08:32:25;2.45;;;2.20;;
6941;SDS011;3510;43.200;27.920;2023-07-20T08:34:52;5.18;;;2.72;;
6941;SDS011;3510;43.200;27.920;2023-07-20T08:37:20;8.35;;;2.97;;
6941;SDS011;3510;43.200;27.920;2023-07-20T08:39:48;9.52;;;3.92;;
6941;SDS011;3510;43.200;27.920;2023-07-20T08:42:15;7.05;;;3.60;;
6941;SDS011;3510;43.200;27.920;2023-07-20T08:44:43;4.70;;;3.15;;
6941;SDS011;3510;43.200;27.920;2023-07-20T08:47:11;10.93;;;4.20;;
6941;SDS011;3510;43.200;27.920;2023-07-20T08:49:41;5.20;;;2.88;;
6941;SDS011;3510;43.200;27.920;2023-07-20T08:52:08;4.80;;;3.50;;
6941;SDS011;3510;43.200;27.920;2023-07-20T08:54:37;5.82;;;3.55;;
6941;SDS011;3510;43.200;27.920;2023-07-20T08:57:05;6.03;;;3.22;;
6941;SDS011;3510;43.200;27.920;2023-07-20T08:59:33;4.65;;;3.13;;
6941;SDS011;3510;43.200;27.920;2023-07-20T09:02:02;3.70;;;3.33;;
6941;SDS011;3510;43.200;27.920;2023-07-20T09:04:32;9.65;;;3.33;;
6941;SDS011;3510;43.200;27.920;2023-07-20T09:06:59;14.70;;;3.35;;
6941;SDS011;3510;43.200;27.920;2023-07-20T09:09:26;4.38;;;3.20;;
6941;SDS011;3510;43.200;27.920;2023-07-20T09:11:55;4.32;;;3.72;;
6941;SDS011;3510;43.200;27.920;2023-07-20T09:14:25;9.32;;;3.30;;
6941;SDS011;3510;43.200;27.920;2023-07-20T09:17:05;4.93;;;3.53;;
6941;SDS011;3510;43.200;27.920;2023-07-20T09:19:45;4.30;;;3.35;;
6941;SDS011;3510;43.200;27.920;2023-07-20T09:22:13;4.15;;;3.10;;
6941;SDS011;3510;43.200;27.920;2023-07-20T09:24:40;8.13;;;3.85;;
6941;SDS011;3510;43.200;27.920;2023-07-20T09:27:09;3.38;;;3.08;;
6941;SDS011;3510;43.200;27.920;2023-07-20T09:29:46;5.53;;;3.55;;
6941;SDS011;3510;43.200;27.920;2023-07-20T09:32:18;4.75;;;2.60;;
6941;SDS011;3510;43.200;27.920;2023-07-20T09:34:47;3.13;;;2.55;;
6941;SDS011;3510;43.200;27.920;2023-07-20T09:37:19;4.88;;;2.83;;
6941;SDS011;3510;43.200;27.920;2023-07-20T09:39:47;3.47;;;2.88;;
6941;SDS011;3510;43.200;27.920;2023-07-20T09:42:20;5.68;;;3.45;;
6941;SDS011;3510;43.200;27.920;2023-07-20T09:44:50;4.65;;;2.97;;
6941;SDS011;3510;43.200;27.920;2023-07-20T09:47:21;4.78;;;4.05;;
6941;SDS011;3510;43.200;27.920;2023-07-20T09:49:48;3.92;;;3.47;;
6941;SDS011;3510;43.200;27.920;2023-07-20T09:52:15;3.80;;;3.47;;
6941;SDS011;3510;43.200;27.920;2023-07-20T09:55:02;6.25;;;4.10;;
6941;SDS011;3510;43.200;27.920;2023-07-20T09:57:34;10.65;;;4.68;;
6941;SDS011;3510;43.200;27.920;2023-07-20T10:00:06;4.50;;;4.10;;
6941;SDS011;3510;43.200;27.920;2023-07-20T10:02:41;9.73;;;3.22;;
6941;SDS011;3510;43.200;27.920;2023-07-20T10:05:11;5.43;;;3.50;;
6941;SDS011;3510;43.200;27.920;2023-07-20T10:07:43;8.05;;;3.97;;
6941;SDS011;3510;43.200;27.920;2023-07-20T10:10:15;6.38;;;3.42;;
6941;SDS011;3510;43.200;27.920;2023-07-20T10:15:43;8.18;;;3.47;;
6941;SDS011;3510;43.200;27.920;2023-07-20T10:18:31;5.68;;;3.63;;
6941;SDS011;3510;43.200;27.920;2023-07-20T10:21:07;11.38;;;4.15;;
6941;SDS011;3510;43.200;27.920;2023-07-20T10:23:37;5.70;;;4.45;;
6941;SDS011;3510;43.200;27.920;2023-07-20T10:26:05;5.70;;;3.60;;
6941;SDS011;3510;43.200;27.920;2023-07-20T10:31:11;5.97;;;3.83;;
6941;SDS011;3510;43.200;27.920;2023-07-20T10:33:40;5.18;;;3.47;;
6941;SDS011;3510;43.200;27.920;2023-07-20T10:36:07;4.00;;;3.70;;
6941;SDS011;3510;43.200;27.920;2023-07-20T10:38:38;11.57;;;4.90;;
6941;SDS011;3510;43.200;27.920;2023-07-20T10:41:15;8.77;;;3.55;;
6941;SDS011;3510;43.200;27.920;2023-07-20T10:43:43;9.52;;;4.10;;
6941;SDS011;3510;43.200;27.920;2023-07-20T10:46:16;5.80;;;3.47;;
6941;SDS011;3510;43.200;27.920;2023-07-20T10:49:08;7.80;;;4.22;;
6941;SDS011;3510;43.200;27.920;2023-07-20T10:51:40;6.72;;;4.18;;
6941;SDS011;3510;43.200;27.920;2023-07-20T10:59:49;3.90;;;3.60;;
6941;SDS011;3510;43.200;27.920;2023-07-20T11:02:19;3.75;;;3.45;;
6941;SDS011;3510;43.200;27.920;2023-07-20T11:04:46;5.15;;;4.30;;
6941;SDS011;3510;43.200;27.920;2023-07-20T11:07:15;7.63;;;3.88;;
6941;SDS011;3510;43.200;27.920;2023-07-20T11:09:45;6.53;;;4.68;;
6941;SDS011;3510;43.200;27.920;2023-07-20T11:12:17;9.90;;;3.72;;
6941;SDS011;3510;43.200;27.920;2023-07-20T11:14:52;8.30;;;3.85;;
6941;SDS011;3510;43.200;27.920;2023-07-20T11:17:28;8.48;;;4.05;;
6941;SDS011;3510;43.200;27.920;2023-07-20T11:19:56;7.40;;;4.43;;
6941;SDS011;3510;43.200;27.920;2023-07-20T11:22:25;7.78;;;4.15;;
6941;SDS011;3510;43.200;27.920;2023-07-20T11:24:54;13.23;;;4.80;;
6941;SDS011;3510;43.200;27.920;2023-07-20T11:27:22;7.38;;;4.20;;
6941;SDS011;3510;43.200;27.920;2023-07-20T11:29:49;5.93;;;4.80;;
6941;SDS011;3510;43.200;27.920;2023-07-20T11:32:20;4.43;;;3.83;;
6941;SDS011;3510;43.200;27.920;2023-07-20T11:34:49;8.35;;;4.40;;
6941;SDS011;3510;43.200;27.920;2023-07-20T11:37:16;5.30;;;4.00;;
6941;SDS011;3510;43.200;27.920;2023-07-20T11:39:43;4.63;;;3.75;;
6941;SDS011;3510;43.200;27.920;2023-07-20T11:42:10;5.45;;;4.97;;
6941;SDS011;3510;43.200;27.920;2023-07-20T11:44:38;8.07;;;3.85;;
6941;SDS011;3510;43.200;27.920;2023-07-20T11:47:05;4.60;;;3.90;;
6941;SDS011;3510;43.200;27.920;2023-07-20T11:49:35;4.07;;;3.75;;
6941;SDS011;3510;43.200;27.920;2023-07-20T11:52:05;5.32;;;4.53;;
6941;SDS011;3510;43.200;27.920;2023-07-20T11:54:33;7.60;;;4.20;;
6941;SDS011;3510;43.200;27.920;2023-07-20T11:57:02;6.25;;;4.10;;
6941;SDS011;3510;43.200;27.920;2023-07-20T11:59:30;15.70;;;4.80;;
6941;SDS011;3510;43.200;27.920;2023-07-20T12:01:57;7.47;;;3.95;;
6941;SDS011;3510;43.200;27.920;2023-07-20T12:04:24;6.90;;;3.53;;
6941;SDS011;3510;43.200;27.920;2023-07-20T12:06:53;5.25;;;3.90;;
6941;SDS011;3510;43.200;27.920;2023-07-20T12:09:21;7.45;;;4.85;;
6941;SDS011;3510;43.200;27.920;2023-07-20T12:11:48;11.45;;;4.13;;
6941;SDS011;3510;43.200;27.920;2023-07-20T12:14:17;6.28;;;4.00;;
6941;SDS011;3510;43.200;27.920;2023-07-20T12:16:51;6.85;;;4.22;;
6941;SDS011;3510;43.200;27.920;2023-07-20T12:19:25;10.20;;;5.10;;
6941;SDS011;3510;43.200;27.920;2023-07-20T12:21:56;10.32;;;3.97;;
6941;SDS011;3510;43.200;27.920;2023-07-20T12:24:28;8.82;;;4.45;;
6941;SDS011;3510;43.200;27.920;2023-07-20T12:27:00;8.55;;;4.35;;
6941;SDS011;3510;43.200;27.920;2023-07-20T12:29:27;5.57;;;3.95;;
6941;SDS011;3510;43.200;27.920;2023-07-20T12:31:54;10.65;;;4.60;;
6941;SDS011;3510;43.200;27.920;2023-07-20T12:34:25;10.55;;;5.68;;
6941;SDS011;3510;43.200;27.920;2023-07-20T12:36:51;6.72;;;4.20;;
6941;SDS011;3510;43.200;27.920;2023-07-20T12:39:18;5.75;;;4.15;;
6941;SDS011;3510;43.200;27.920;2023-07-20T12:41:47;7.07;;;4.10;;
6941;SDS011;3510;43.200;27.920;2023-07-20T12:44:14;9.65;;;4.03;;
6941;SDS011;3510;43.200;27.920;2023-07-20T12:46:41;7.72;;;4.28;;
6941;SDS011;3510;43.200;27.920;2023-07-20T12:49:08;11.50;;;5.32;;
6941;SDS011;3510;43.200;27.920;2023-07-20T12:51:39;8.15;;;4.93;;
6941;SDS011;3510;43.200;27.920;2023-07-20T12:54:06;14.02;;;4.85;;
6941;SDS011;3510;43.200;27.920;2023-07-20T12:56:33;6.90;;;3.97;;
6941;SDS011;3510;43.200;27.920;2023-07-20T12:59:01;7.25;;;4.07;;
6941;SDS011;3510;43.200;27.920;2023-07-20T13:01:30;9.95;;;4.53;;
6941;SDS011;3510;43.200;27.920;2023-07-20T13:03:57;8.60;;;4.50;;
6941;SDS011;3510;43.200;27.920;2023-07-20T13:06:24;7.65;;;5.05;;
6941;SDS011;3510;43.200;27.920;2023-07-20T13:08:51;7.22;;;4.95;;
6941;SDS011;3510;43.200;27.920;2023-07-20T13:11:21;14.05;;;4.38;;
6941;SDS011;3510;43.200;27.920;2023-07-20T13:13:50;14.55;;;4.35;;
6941;SDS011;3510;43.200;27.920;2023-07-20T13:16:18;8.98;;;5.05;;
6941;SDS011;3510;43.200;27.920;2023-07-20T13:18:45;10.55;;;4.60;;
6941;SDS011;3510;43.200;27.920;2023-07-20T13:21:11;4.68;;;3.63;;
6941;SDS011;3510;43.200;27.920;2023-07-20T13:23:38;7.40;;;4.13;;
6941;SDS011;3510;43.200;27.920;2023-07-20T13:26:05;4.70;;;4.05;;
6941;SDS011;3510;43.200;27.920;2023-07-20T13:28:33;5.22;;;4.10;;
6941;SDS011;3510;43.200;27.920;2023-07-20T13:31:00;6.97;;;4.47;;
6941;SDS011;3510;43.200;27.920;2023-07-20T13:33:29;6.18;;;3.55;;
6941;SDS011;3510;43.200;27.920;2023-07-20T13:35:55;11.35;;;4.35;;
6941;SDS011;3510;43.200;27.920;2023-07-20T13:38:22;5.20;;;4.00;;
6941;SDS011;3510;43.200;27.920;2023-07-20T13:40:49;4.47;;;4.13;;
6941;SDS011;3510;43.200;27.920;2023-07-20T13:43:15;5.85;;;4.63;;
6941;SDS011;3510;43.200;27.920;2023-07-20T13:45:42;9.82;;;4.53;;
6941;SDS011;3510;43.200;27.920;2023-07-20T13:48:09;9.25;;;4.45;;
6941;SDS011;3510;43.200;27.920;2023-07-20T13:50:37;9.25;;;5.15;;
6941;SDS011;3510;43.200;27.920;2023-07-20T13:53:04;13.52;;;5.97;;
6941;SDS011;3510;43.200;27.920;2023-07-20T13:55:31;5.40;;;4.32;;
6941;SDS011;3510;43.200;27.920;2023-07-20T13:58:01;5.57;;;4.82;;
6941;SDS011;3510;43.200;27.920;2023-07-20T14:00:31;6.05;;;5.25;;
6941;SDS011;3510;43.200;27.920;2023-07-20T14:02:59;6.85;;;4.47;;
6941;SDS011;3510;43.200;27.920;2023-07-20T14:05:27;6.18;;;4.55;;
6941;SDS011;3510;43.200;27.920;2023-07-20T14:07:56;4.50;;;4.25;;
6941;SDS011;3510;43.200;27.920;2023-07-20T14:10:23;5.22;;;4.72;;
6941;SDS011;3510;43.200;27.920;2023-07-20T14:12:49;6.90;;;4.80;;
6941;SDS011;3510;43.200;27.920;2023-07-20T14:15:17;5.13;;;4.72;;
6941;SDS011;3510;43.200;27.920;2023-07-20T14:17:45;10.15;;;4.70;;
6941;SDS011;3510;43.200;27.920;2023-07-20T14:20:11;5.10;;;4.70;;
6941;SDS011;3510;43.200;27.920;2023-07-20T14:22:38;6.82;;;6.00;;
6941;SDS011;3510;43.200;27.920;2023-07-20T14:25:08;7.63;;;6.78;;
6941;SDS011;3510;43.200;27.920;2023-07-20T14:27:35;8.77;;;5.22;;
6941;SDS011;3510;43.200;27.920;2023-07-20T14:30:02;5.15;;;4.53;;
6941;SDS011;3510;43.200;27.920;2023-07-20T14:32:28;5.28;;;4.97;;
6941;SDS011;3510;43.200;27.920;2023-07-20T14:34:56;4.50;;;4.10;;
6941;SDS011;3510;43.200;27.920;2023-07-20T14:37:23;7.35;;;4.65;;
6941;SDS011;3510;43.200;27.920;2023-07-20T14:39:50;10.15;;;4.80;;
6941;SDS011;3510;43.200;27.920;2023-07-20T14:42:19;10.90;;;5.40;;
6941;SDS011;3510;43.200;27.920;2023-07-20T14:44:46;7.50;;;5.80;;
6941;SDS011;3510;43.200;27.920;2023-07-20T14:47:13;5.90;;;4.50;;
6941;SDS011;3510;43.200;27.920;2023-07-20T14:49:39;6.88;;;5.15;;
6941;SDS011;3510;43.200;27.920;2023-07-20T14:52:06;6.45;;;5.85;;
6941;SDS011;3510;43.200;27.920;2023-07-20T14:54:33;10.13;;;4.90;;
6941;SDS011;3510;43.200;27.920;2023-07-20T14:57:00;6.00;;;4.78;;
6941;SDS011;3510;43.200;27.920;2023-07-20T14:59:29;6.18;;;5.65;;
6941;SDS011;3510;43.200;27.920;2023-07-20T15:01:56;5.20;;;4.82;;
6941;SDS011;3510;43.200;27.920;2023-07-20T15:04:23;5.88;;;5.38;;
6941;SDS011;3510;43.200;27.920;2023-07-20T15:06:52;5.35;;;4.95;;
6941;SDS011;3510;43.200;27.920;2023-07-20T15:09:19;11.77;;;5.13;;
6941;SDS011;3510;43.200;27.920;2023-07-20T15:11:46;12.32;;;5.78;;
6941;SDS011;3510;43.200;27.920;2023-07-20T15:14:13;5.55;;;5.05;;
6941;SDS011;3510;43.200;27.920;2023-07-20T15:16:41;10.52;;;5.63;;
6941;SDS011;3510;43.200;27.920;2023-07-20T15:19:09;6.90;;;5.47;;
6941;SDS011;3510;43.200;27.920;2023-07-20T15:21:38;6.13;;;5.50;;
6941;SDS011;3510;43.200;27.920;2023-07-20T15:24:05;8.85;;;5.82;;
6941;SDS011;3510;43.200;27.920;2023-07-20T15:26:32;6.30;;;5.80;;
6941;SDS011;3510;43.200;27.920;2023-07-20T15:29:00;7.35;;;6.78;;
6941;SDS011;3510;43.200;27.920;2023-07-20T15:31:27;7.00;;;6.35;;
6941;SDS011;3510;43.200;27.920;2023-07-20T15:33:55;7.50;;;6.97;;
6941;SDS011;3510;43.200;27.920;2023-07-20T15:36:21;7.32;;;6.80;;
6941;SDS011;3510;43.200;27.920;2023-07-20T15:38:48;7.68;;;6.45;;
6941;SDS011;3510;43.200;27.920;2023-07-20T15:41:15;7.35;;;6.75;;
6941;SDS011;3510;43.200;27.920;2023-07-20T15:43:42;8.15;;;7.28;;
6941;SDS011;3510;43.200;27.920;2023-07-20T16:03:55;7.80;;;7.20;;
6941;SDS011;3510;43.200;27.920;2023-07-20T16:06:23;8.20;;;7.47;;
6941;SDS011;3510;43.200;27.920;2023-07-20T16:08:50;9.25;;;7.72;;
6941;SDS011;3510;43.200;27.920;2023-07-20T16:11:17;8.45;;;7.72;;
6941;SDS011;3510;43.200;27.920;2023-07-20T16:13:44;7.75;;;7.35;;
6941;SDS011;3510;43.200;27.920;2023-07-20T16:16:11;7.55;;;7.07;;
6941;SDS011;3510;43.200;27.920;2023-07-20T16:18:38;8.00;;;7.20;;
6941;SDS011;3510;43.200;27.920;2023-07-20T16:21:04;7.28;;;6.85;;
6941;SDS011;3510;43.200;27.920;2023-07-20T16:23:32;7.28;;;6.65;;
6941;SDS011;3510;43.200;27.920;2023-07-20T16:25:59;7.07;;;6.38;;
6941;SDS011;3510;43.200;27.920;2023-07-20T16:28:26;7.25;;;6.65;;
6941;SDS011;3510;43.200;27.920;2023-07-20T16:30:52;6.35;;;5.82;;
6941;SDS011;3510;43.200;27.920;2023-07-20T16:33:20;6.68;;;6.13;;
6941;SDS011;3510;43.200;27.920;2023-07-20T16:35:57;7.15;;;6.55;;
6941;SDS011;3510;43.200;27.920;2023-07-20T16:38:24;6.60;;;6.20;;
6941;SDS011;3510;43.200;27.920;2023-07-20T16:40:58;6.65;;;6.28;;
6941;SDS011;3510;43.200;27.920;2023-07-20T16:43:25;8.20;;;6.55;;
6941;SDS011;3510;43.200;27.920;2023-07-20T16:45:57;7.70;;;6.93;;
6941;SDS011;3510;43.200;27.920;2023-07-20T16:48:27;7.88;;;7.45;;
6941;SDS011;3510;43.200;27.920;2023-07-20T16:50:54;14.90;;;7.30;;
6941;SDS011;3510;43.200;27.920;2023-07-20T16:53:21;7.72;;;7.13;;
6941;SDS011;3510;43.200;27.920;2023-07-20T16:55:48;7.85;;;7.07;;
6941;SDS011;3510;43.200;27.920;2023-07-20T16:58:18;7.30;;;6.72;;
6941;SDS011;3510;43.200;27.920;2023-07-20T17:00:45;9.93;;;7.03;;
6941;SDS011;3510;43.200;27.920;2023-07-20T17:03:13;9.50;;;8.35;;
6941;SDS011;3510;43.200;27.920;2023-07-20T17:05:41;12.05;;;8.77;;
6941;SDS011;3510;43.200;27.920;2023-07-20T17:08:08;8.55;;;7.07;;
6941;SDS011;3510;43.200;27.920;2023-07-20T17:10:35;8.55;;;7.82;;
6941;SDS011;3510;43.200;27.920;2023-07-20T17:13:02;11.25;;;6.80;;
6941;SDS011;3510;43.200;27.920;2023-07-20T17:15:32;5.85;;;5.45;;
6941;SDS011;3510;43.200;27.920;2023-07-20T17:17:58;6.22;;;5.05;;
6941;SDS011;3510;43.200;27.920;2023-07-20T17:20:25;7.72;;;5.18;;
6941;SDS011;3510;43.200;27.920;2023-07-20T17:22:52;8.63;;;5.72;;
6941;SDS011;3510;43.200;27.920;2023-07-20T17:25:19;5.22;;;4.93;;
6941;SDS011;3510;43.200;27.920;2023-07-20T17:27:48;5.55;;;5.13;;
6941;SDS011;3510;43.200;27.920;2023-07-20T17:30:15;6.25;;;5.75;;
6941;SDS011;3510;43.200;27.920;2023-07-20T17:32:43;7.53;;;6.80;;
6941;SDS011;3510;43.200;27.920;2023-07-20T17:35:10;10.43;;;5.75;;
6941;SDS011;3510;43.200;27.920;2023-07-20T17:37:38;5.70;;;5.20;;
6941;SDS011;3510;43.200;27.920;2023-07-20T17:40:07;5.13;;;4.82;;
6941;SDS011;3510;43.200;27.920;2023-07-20T17:42:35;5.50;;;4.40;;
